Time;durP1;ratioP1;P1;durP2;ratioP2;P2;SDS_P1;SDS_P2;PMS_P1;PMS_P2;Temp;Humidity;BMP_temperature;BMP_pressure;BME280_temperature;BME280_humidity;BME280_pressure;Samples;Min_cycle;Max_cycle;Signal;HPM_P1;HPM_P2
2022/03/01 00:02:19;;;;;;;63.88;9.32;;;;;;;12.49;98.16;101986.50;7383683;19;20014;-82
2022/03/01 00:04:47;;;;;;;15.15;6.90;;;;;;;12.51;98.33;101981.91;7383993;19;20070;-80
2022/03/01 00:07:14;;;;;;;11.57;5.95;;;;;;;12.47;97.95;101981.34;7386015;19;20256;-80
2022/03/01 00:09:41;;;;;;;15.55;6.50;;;;;;;12.43;98.01;101978.16;7384425;19;20049;-79
2022/03/01 00:12:09;;;;;;;14.80;5.97;;;;;;;12.42;97.72;101975.63;7388323;19;20025;-80
2022/03/01 00:14:37;;;;;;;14.27;6.50;;;;;;;12.43;98.38;101982.59;7386261;19;20018;-81
2022/03/01 00:17:05;;;;;;;180.07;14.20;;;;;;;12.43;98.11;101978.16;7384200;19;20456;-80
2022/03/01 00:19:32;;;;;;;13.35;7.43;;;;;;;12.46;98.49;101978.84;7385324;19;20110;-80
2022/03/01 00:21:59;;;;;;;20.10;10.75;;;;;;;12.46;98.61;101977.03;7387094;19;20010;-82
2022/03/01 00:24:30;;;;;;;152.88;14.25;;;;;;;12.51;98.92;101984.53;7388258;19;20014;-79
2022/03/01 00:26:57;;;;;;;18.20;8.38;;;;;;;12.55;98.96;101989.41;7386257;19;20011;-81
2022/03/01 00:29:24;;;;;;;15.35;7.13;;;;;;;12.57;98.92;101982.19;7383365;19;20042;-80
2022/03/01 00:31:52;;;;;;;13.98;6.45;;;;;;;12.56;98.58;101980.50;7382078;19;20018;-81
2022/03/01 00:34:19;;;;;;;13.52;5.95;;;;;;;12.54;98.21;101989.56;7386495;19;20014;-80
2022/03/01 00:36:47;;;;;;;12.82;6.38;;;;;;;12.55;98.61;101994.69;7383710;19;20022;-81
2022/03/01 00:39:14;;;;;;;14.00;6.30;;;;;;;12.52;98.30;101988.84;7383616;19;20006;-81
2022/03/01 00:41:41;;;;;;;10.95;5.72;;;;;;;12.53;98.65;101990.53;7385989;19;20014;-81
2022/03/01 00:44:09;;;;;;;131.65;10.27;;;;;;;12.50;98.36;101991.63;7386865;19;20011;-81
2022/03/01 00:46:37;;;;;;;18.30;8.52;;;;;;;12.52;98.13;101989.69;7386553;19;20010;-81
2022/03/01 00:49:04;;;;;;;14.15;6.05;;;;;;;12.50;98.11;101986.34;7389429;19;20312;-80
2022/03/01 00:51:35;;;;;;;11.13;5.55;;;;;;;12.52;98.40;101994.97;7386038;19;20011;-81
2022/03/01 00:54:04;;;;;;;25.63;6.18;;;;;;;12.53;98.15;101990.53;7386642;19;20018;-80
2022/03/01 00:56:34;;;;;;;98.00;9.32;;;;;;;12.54;97.93;101997.47;7386977;19;20387;-81
2022/03/01 00:59:01;;;;;;;46.72;6.90;;;;;;;12.50;97.79;101993.41;7384675;19;20376;-81
2022/03/01 01:01:29;;;;;;;20.83;6.63;;;;;;;12.50;98.25;101988.13;7381796;19;20348;-81
2022/03/01 01:03:57;;;;;;;29.60;6.90;;;;;;;12.50;98.43;101988.13;7384820;19;20038;-81
2022/03/01 01:06:24;;;;;;;12.15;6.25;;;;;;;12.51;99.03;101988.00;7383895;19;20010;-81
2022/03/01 01:08:52;;;;;;;12.63;5.95;;;;;;;12.51;99.03;101990.66;7382606;19;20082;-80
2022/03/01 01:11:19;;;;;;;251.88;15.80;;;;;;;12.50;98.51;101994.25;7384051;19;20023;-80
2022/03/01 01:13:46;;;;;;;64.72;7.35;;;;;;;12.47;98.60;101983.16;7383742;19;20014;-79
2022/03/01 01:16:14;;;;;;;11.50;5.60;;;;;;;12.44;98.78;101993.00;7385784;19;20014;-80
2022/03/01 01:18:43;;;;;;;13.27;5.13;;;;;;;12.46;98.93;101992.88;7383110;19;20018;-80
2022/03/01 01:21:11;;;;;;;9.80;5.10;;;;;;;12.40;98.58;101998.69;7383364;19;20400;-80
2022/03/01 01:23:41;;;;;;;11.63;5.00;;;;;;;12.40;98.92;101999.53;7382678;19;20034;-81
2022/03/01 01:26:09;;;;;;;9.93;4.80;;;;;;;12.39;99.00;101991.75;7384763;19;20037;-80
2022/03/01 01:28:37;;;;;;;11.85;5.50;;;;;;;12.38;99.03;101992.72;7381674;19;20021;-81
2022/03/01 01:31:04;;;;;;;10.95;5.78;;;;;;;12.38;98.87;101998.00;7380964;19;20021;-81
2022/03/01 01:33:32;;;;;;;11.77;5.72;;;;;;;12.37;98.98;101993.69;7386252;19;20010;-79
2022/03/01 01:35:59;;;;;;;11.90;5.60;;;;;;;12.39;99.23;101999.69;7384132;19;20015;-80
2022/03/01 01:38:26;;;;;;;13.95;7.40;;;;;;;12.40;99.17;102003.97;7386835;19;20164;-79
2022/03/01 01:40:54;;;;;;;38.15;6.22;;;;;;;12.41;99.00;101998.56;7382315;19;20438;-79
2022/03/01 01:43:21;;;;;;;12.02;6.30;;;;;;;12.43;98.80;102009.00;7382999;19;20006;-80
2022/03/01 01:45:48;;;;;;;14.13;6.05;;;;;;;12.43;98.77;102004.53;7382797;19;20550;-80
2022/03/01 01:48:16;;;;;;;10.90;6.28;;;;;;;12.46;99.03;101999.94;7379905;19;20014;-80
2022/03/01 01:50:43;;;;;;;36.97;7.55;;;;;;;12.46;99.12;101995.50;7380494;19;20293;-80
2022/03/01 01:53:11;;;;;;;14.20;6.45;;;;;;;12.50;98.87;101999.53;7382335;19;20042;-80
2022/03/01 01:55:38;;;;;;;10.77;6.13;;;;;;;12.51;99.19;101995.09;7381262;19;20010;-81
2022/03/01 01:58:06;;;;;;;90.72;9.65;;;;;;;12.50;99.23;101998.69;7385154;19;20012;-79
2022/03/01 02:00:33;;;;;;;13.18;6.03;;;;;;;12.51;99.21;101997.72;7386941;19;20019;-80
2022/03/01 02:03:01;;;;;;;505.80;23.70;;;;;;;12.51;98.84;101997.72;7388044;19;20499;-79
2022/03/01 02:05:29;;;;;;;12.82;6.40;;;;;;;12.49;98.75;101989.97;7391078;19;20017;-79
2022/03/01 02:07:57;;;;;;;12.23;6.50;;;;;;;12.46;98.61;101999.94;7391806;19;20039;-79
2022/03/01 02:10:27;;;;;;;35.08;8.48;;;;;;;12.47;98.80;101998.97;7390943;19;20011;-79
2022/03/01 02:12:56;;;;;;;10.27;5.28;;;;;;;12.47;99.03;101998.97;7388987;19;20022;-80
2022/03/01 02:15:27;;;;;;;384.60;18.77;;;;;;;12.44;98.83;101995.63;7387960;19;20018;-80
2022/03/01 02:17:54;;;;;;;11.65;6.20;;;;;;;12.47;99.67;101996.34;7386996;19;20003;-80
2022/03/01 02:20:23;;;;;;;12.52;5.60;;;;;;;12.42;99.48;101994.13;7387885;19;20036;-81
2022/03/01 02:22:55;;;;;;;27.42;6.88;;;;;;;12.44;99.62;101994.81;7389443;19;20038;-79
2022/03/01 02:25:23;;;;;;;9.52;5.70;;;;;;;12.42;99.74;101997.59;7390231;19;20029;-80
2022/03/01 02:27:51;;;;;;;39.53;6.72;;;;;;;12.42;99.53;101994.13;7389099;19;20014;-79
2022/03/01 02:30:19;;;;;;;127.75;10.38;;;;;;;12.41;99.37;101997.72;7388928;19;20018;-81
2022/03/01 02:32:46;;;;;;;12.32;5.95;;;;;;;12.40;99.31;101990.75;7387428;19;20113;-79
2022/03/01 02:35:13;;;;;;;10.30;5.25;;;;;;;12.35;99.46;101993.81;7392687;19;20315;-81
2022/03/01 02:37:42;;;;;;;8.68;4.55;;;;;;;12.29;99.26;101994.34;7388201;19;20019;-82
2022/03/01 02:40:11;;;;;;;9.60;5.13;;;;;;;12.29;99.22;101993.53;7387366;19;20020;-79
2022/03/01 02:42:41;;;;;;;8.88;4.85;;;;;;;12.28;99.63;101995.34;7387955;19;20006;-79
2022/03/01 02:45:11;;;;;;;10.15;5.43;;;;;;;12.25;99.56;101992.94;7391550;19;20264;-80
2022/03/01 02:47:38;;;;;;;10.15;4.75;;;;;;;12.24;99.51;101991.28;7385602;19;20007;-80
2022/03/01 02:50:08;;;;;;;10.82;5.38;;;;;;;12.25;99.60;101994.75;7387446;19;20015;-81
2022/03/01 02:52:37;;;;;;;50.05;6.75;;;;;;;12.25;99.87;101998.22;7386072;19;20017;-81
2022/03/01 02:55:06;;;;;;;12.60;5.95;;;;;;;12.29;100.00;101998.81;7388176;19;20014;-80
2022/03/01 02:57:33;;;;;;;11.80;4.85;;;;;;;12.30;99.61;101998.66;7391053;19;20365;-81
2022/03/01 03:00:02;;;;;;;9.90;4.68;;;;;;;12.31;99.75;102000.34;7390206;19;20038;-80
2022/03/01 03:02:29;;;;;;;11.18;5.25;;;;;;;12.29;99.50;101998.81;7384694;19;20022;-80
2022/03/01 03:04:57;;;;;;;12.38;5.88;;;;;;;12.29;99.91;101998.81;7390830;19;20020;-79
2022/03/01 03:07:24;;;;;;;11.38;6.30;;;;;;;12.29;99.96;101994.34;7385913;19;20003;-81
2022/03/01 03:09:51;;;;;;;11.75;6.40;;;;;;;12.33;100.00;102002.84;7384831;19;20010;-80
2022/03/01 03:12:19;;;;;;;152.07;10.43;;;;;;;12.32;99.69;102004.66;7387912;19;20247;-80
2022/03/01 03:14:46;;;;;;;10.25;5.35;;;;;;;12.34;100.00;102005.34;7387243;19;20027;-80
2022/03/01 03:17:13;;;;;;;254.45;15.05;;;;;;;12.34;99.87;101999.25;7388462;19;20026;-80
2022/03/01 03:19:41;;;;;;;11.98;6.60;;;;;;;12.35;99.67;101996.44;7384485;19;20029;-80
2022/03/01 03:22:08;;;;;;;12.20;6.13;;;;;;;12.38;100.00;101976.88;7387667;19;20014;-80
2022/03/01 03:24:36;;;;;;;215.55;14.48;;;;;;;12.41;100.00;101971.31;7387334;19;20025;-80
2022/03/01 03:27:04;;;;;;;11.93;5.70;;;;;;;12.41;100.00;101979.25;7391019;19;20018;-80
2022/03/01 03:29:31;;;;;;;12.85;6.20;;;;;;;12.35;99.24;101970.06;7385611;19;20018;-81
2022/03/01 03:31:59;;;;;;;12.40;6.03;;;;;;;12.31;99.40;101976.59;7388711;19;20479;-80
2022/03/01 03:34:26;;;;;;;13.77;5.30;;;;;;;12.30;99.11;101980.19;7386024;19;20423;-80
2022/03/01 03:36:54;;;;;;;34.88;5.90;;;;;;;12.30;99.17;101972.28;7385545;19;20010;-79
2022/03/01 03:39:21;;;;;;;10.25;4.82;;;;;;;12.30;99.70;101977.56;7384738;19;20007;-79
2022/03/01 03:41:51;;;;;;;102.90;9.30;;;;;;;12.32;99.37;101982.69;7386231;19;20018;-80
2022/03/01 03:44:18;;;;;;;11.32;5.38;;;;;;;12.32;99.85;101990.63;7387251;19;20043;-80
2022/03/01 03:46:47;;;;;;;34.65;5.88;;;;;;;12.26;99.49;101986.72;7386520;19;20426;-80
2022/03/01 03:49:15;;;;;;;13.02;5.57;;;;;;;12.25;99.47;101982.41;7383795;19;20359;-79
2022/03/01 03:51:42;;;;;;;10.05;5.25;;;;;;;12.22;99.38;101990.59;7383446;19;20463;-81
2022/03/01 03:54:09;;;;;;;12.60;5.35;;;;;;;12.22;99.81;101989.75;7383162;19;20712;-79
2022/03/01 03:56:37;;;;;;;90.93;11.35;;;;;;;12.21;99.88;101990.72;7385835;19;20050;-80
2022/03/01 03:59:07;;;;;;;5.90;2.70;;;;;;;12.20;99.14;101995.16;7386477;19;20034;-80
2022/03/01 04:01:34;;;;;;;2.45;1.20;;;;;;;12.12;95.61;102002.94;7382308;19;20491;-80
2022/03/01 04:04:03;;;;;;;1.90;0.73;;;;;;;11.99;93.63;102010.22;7385971;19;20021;-80
2022/03/01 04:06:31;;;;;;;2.10;1.02;;;;;;;11.83;93.68;102000.19;7384164;19;20099;-80
2022/03/01 04:08:58;;;;;;;2.85;1.08;;;;;;;11.78;93.86;102012.09;7379493;19;20015;-79
2022/03/01 04:11:25;;;;;;;9.57;2.00;;;;;;;11.71;94.89;102013.53;7387378;19;20420;-79
2022/03/01 04:13:53;;;;;;;3.17;1.13;;;;;;;11.65;94.72;102011.41;7385906;19;20230;-79
2022/03/01 04:16:20;;;;;;;4.00;1.50;;;;;;;11.57;94.11;102025.25;7384996;19;20018;-80
2022/03/01 04:18:48;;;;;;;6.18;2.58;;;;;;;11.47;94.34;102024.34;7385948;19;20035;-79
2022/03/01 04:21:16;;;;;;;5.10;2.33;;;;;;;11.45;94.40;102010.47;7381091;19;20030;-80
2022/03/01 04:23:43;;;;;;;5.82;2.45;;;;;;;11.42;94.71;102022.13;7385974;19;20010;-80
2022/03/01 04:26:14;;;;;;;5.03;1.98;;;;;;;11.40;94.70;102021.41;7385699;19;20007;-80
2022/03/01 04:28:42;;;;;;;5.70;2.47;;;;;;;11.37;94.46;102026.09;7382372;19;20010;-80
2022/03/01 04:31:10;;;;;;;5.07;2.72;;;;;;;11.30;94.04;102028.41;7382913;19;20029;-80
2022/03/01 04:33:37;;;;;;;6.22;2.22;;;;;;;11.30;94.38;102036.31;7384940;19;20053;-80
2022/03/01 04:36:06;;;;;;;4.55;2.22;;;;;;;11.26;93.85;102032.25;7381895;19;20018;-80
2022/03/01 04:38:34;;;;;;;5.70;2.72;;;;;;;11.23;93.89;102018.47;7382317;19;20320;-80
2022/03/01 04:41:02;;;;;;;5.28;2.50;;;;;;;11.18;93.27;102016.22;7382035;19;20018;-80
2022/03/01 04:43:29;;;;;;;5.40;1.80;;;;;;;11.08;92.92;102017.94;7384699;19;20442;-80
2022/03/01 04:45:56;;;;;;;4.50;2.20;;;;;;;11.07;93.81;102018.94;7383816;19;20029;-80
2022/03/01 04:48:24;;;;;;;3.95;2.25;;;;;;;11.06;93.87;102022.53;7383659;19;20006;-80
2022/03/01 04:50:52;;;;;;;6.10;2.63;;;;;;;11.03;94.03;102028.03;7385343;19;20041;-80
2022/03/01 04:53:19;;;;;;;3.75;1.85;;;;;;;11.01;94.15;102027.34;7384246;19;20022;-79
2022/03/01 04:55:50;;;;;;;21.05;4.88;;;;;;;10.97;94.49;102023.28;7384283;19;20033;-79
2022/03/01 04:58:22;;;;;;;4.57;2.50;;;;;;;10.94;94.84;102027.00;7385722;19;20014;-80
2022/03/01 05:00:50;;;;;;;5.22;2.47;;;;;;;10.93;94.35;102024.47;7382099;19;20521;-81
2022/03/01 05:03:18;;;;;;;12.65;3.60;;;;;;;10.93;94.10;102030.59;7385089;19;20014;-80
2022/03/01 05:05:45;;;;;;;3.35;1.77;;;;;;;10.91;94.57;102026.41;7385195;19;20466;-82
2022/03/01 05:08:12;;;;;;;2.95;1.65;;;;;;;10.89;93.93;102023.06;7386665;19;20022;-80
2022/03/01 05:10:39;;;;;;;3.00;1.80;;;;;;;10.87;93.80;102030.28;7386383;19;20538;-80
2022/03/01 05:13:08;;;;;;;3.97;2.17;;;;;;;10.86;94.04;102036.50;7383067;19;20025;-80
2022/03/01 05:15:36;;;;;;;4.20;2.40;;;;;;;10.81;94.71;102030.75;7382338;19;20010;-80
2022/03/01 05:18:03;;;;;;;3.70;1.33;;;;;;;10.84;94.24;102027.88;7383974;19;20324;-79
2022/03/01 05:20:30;;;;;;;3.55;1.70;;;;;;;10.82;93.90;102021.91;7385951;19;20253;-79
2022/03/01 05:22:58;;;;;;;2.67;1.38;;;;;;;10.83;94.33;102024.41;7387031;19;20195;-80
2022/03/01 05:25:25;;;;;;;3.17;1.60;;;;;;;10.82;94.58;102022.72;7387835;19;20490;-79
2022/03/01 05:27:53;;;;;;;4.22;1.70;;;;;;;10.83;95.02;102020.94;7383834;19;20006;-79
2022/03/01 05:30:22;;;;;;;2.78;1.10;;;;;;;10.77;93.79;102027.53;7382712;19;21020;-80
2022/03/01 05:32:51;;;;;;;2.38;1.08;;;;;;;10.67;93.79;102024.78;7384294;19;20018;-80
2022/03/01 05:35:34;;;;;;;5.55;1.73;;;;;;;10.66;94.49;102024.94;7391524;19;20015;-80
2022/03/01 05:38:20;;;;;;;3.20;0.90;;;;;;;10.67;94.98;102021.31;7386949;19;20473;-81
2022/03/01 05:40:48;;;;;;;16.08;3.28;;;;;;;10.66;95.18;102017.88;7391142;19;20890;-80
2022/03/01 05:43:15;;;;;;;2.20;1.10;;;;;;;10.65;94.41;102029.38;7390309;19;20011;-80
2022/03/01 05:45:42;;;;;;;2.80;1.30;;;;;;;10.62;94.74;102029.59;7391146;19;20396;-80
2022/03/01 05:48:10;;;;;;;102.43;5.97;;;;;;;10.60;95.07;102022.81;7388539;19;20018;-80
2022/03/01 05:50:38;;;;;;;4.25;1.10;;;;;;;10.55;94.73;102028.44;7389351;19;20021;-79
2022/03/01 05:53:05;;;;;;;2.30;0.90;;;;;;;10.55;94.98;102027.59;7390662;19;20018;-79
2022/03/01 05:55:32;;;;;;;8.18;1.42;;;;;;;10.53;94.92;102037.41;7388457;19;20026;-80
2022/03/01 05:58:01;;;;;;;2.53;1.10;;;;;;;10.53;94.94;102040.03;7391382;19;20021;-79
2022/03/01 06:00:28;;;;;;;2.22;0.85;;;;;;;10.55;95.11;102043.38;7395054;19;20037;-79
2022/03/01 06:02:55;;;;;;;1.60;0.82;;;;;;;10.49;94.46;102038.59;7392735;19;20276;-79
2022/03/01 06:05:27;;;;;;;3.33;0.90;;;;;;;10.47;94.86;102043.97;7390147;19;20037;-81
2022/03/01 06:07:55;;;;;;;1.73;0.82;;;;;;;10.47;95.33;102046.63;7395151;19;20015;-81
2022/03/01 06:10:24;;;;;;;10.57;2.10;;;;;;;10.50;95.68;102048.19;7392455;19;20022;-81
2022/03/01 06:12:51;;;;;;;3.00;1.52;;;;;;;10.55;96.11;102053.91;7390079;19;20034;-80
2022/03/01 06:15:19;;;;;;;2.70;1.00;;;;;;;10.53;94.07;102048.75;7392760;19;20364;-80
2022/03/01 06:17:46;;;;;;;1.70;0.70;;;;;;;10.58;94.46;102061.56;7392536;19;20273;-80
2022/03/01 06:20:13;;;;;;;1.65;0.70;;;;;;;10.60;94.74;102057.84;7391280;19;20018;-80
2022/03/01 06:22:41;;;;;;;1.83;0.73;;;;;;;10.58;93.75;102065.03;7392085;19;20698;-80
2022/03/01 06:25:10;;;;;;;2.22;0.80;;;;;;;10.58;93.64;102072.91;7391174;19;20006;-81
2022/03/01 06:27:38;;;;;;;2.75;0.80;;;;;;;10.45;93.83;102076.66;7388727;19;20308;-80
2022/03/01 06:30:06;;;;;;;2.22;1.02;;;;;;;10.50;94.57;102074.50;7388419;19;20007;-80
2022/03/01 06:32:33;;;;;;;1.92;0.85;;;;;;;10.52;94.69;102075.19;7388348;19;20328;-81
2022/03/01 06:35:01;;;;;;;3.33;1.20;;;;;;;10.50;94.51;102066.59;7393237;19;20006;-80
2022/03/01 06:37:37;;;;;;;3.72;1.13;;;;;;;10.53;94.19;102072.44;7392193;19;20067;-80
2022/03/01 06:40:06;;;;;;;2.13;1.00;;;;;;;10.57;94.86;102083.56;7394262;19;20006;-80
2022/03/01 06:42:36;;;;;;;2.35;0.95;;;;;;;10.56;94.69;102076.66;7394931;19;20018;-82
2022/03/01 06:45:04;;;;;;;2.08;0.90;;;;;;;10.56;94.90;102074.84;7390662;19;20463;-80
2022/03/01 06:47:31;;;;;;;2.38;1.08;;;;;;;10.57;94.49;102089.66;7390933;19;20137;-80
2022/03/01 06:50:00;;;;;;;3.35;1.63;;;;;;;10.59;94.56;102086.91;7389909;19;20029;-81
2022/03/01 06:52:28;;;;;;;4.38;2.30;;;;;;;10.58;94.54;102090.50;7391130;19;20083;-79
2022/03/01 06:54:57;;;;;;;2.25;1.02;;;;;;;10.60;95.01;102099.13;7387312;19;20006;-79
2022/03/01 06:57:27;;;;;;;9.50;2.53;;;;;;;10.53;95.16;102104.03;7388927;19;20320;-80
2022/03/01 06:59:54;;;;;;;2.33;1.20;;;;;;;10.54;95.24;102102.22;7389520;19;20033;-79
2022/03/01 07:02:25;;;;;;;27.50;3.20;;;;;;;10.53;95.47;102097.91;7386947;19;20002;-79
2022/03/01 07:04:54;;;;;;;25.63;3.78;;;;;;;10.57;95.93;102109.88;7388471;19;20018;-80
2022/03/01 07:07:23;;;;;;;3.38;1.70;;;;;;;10.61;95.63;102114.81;7391141;19;20015;-79
2022/03/01 07:09:53;;;;;;;7.28;3.00;;;;;;;10.66;95.79;102125.81;7389158;19;20010;-79
2022/03/01 07:12:25;;;;;;;4.63;1.40;;;;;;;10.68;93.83;102128.28;7389407;19;20019;-78
2022/03/01 07:14:53;;;;;;;4.55;2.33;;;;;;;10.66;94.50;102122.34;7390063;19;20021;-80
2022/03/01 07:17:21;;;;;;;6.05;2.47;;;;;;;10.65;95.39;102132.03;7387216;19;20015;-81
2022/03/01 07:19:49;;;;;;;4.22;1.83;;;;;;;10.61;94.13;102135.03;7389363;19;20006;-81
2022/03/01 07:22:17;;;;;;;111.00;7.20;;;;;;;10.60;94.93;102135.97;7387729;19;20036;-80
2022/03/01 07:24:45;;;;;;;6.05;2.95;;;;;;;10.56;95.32;102138.00;7390121;19;20029;-82
2022/03/01 07:27:12;;;;;;;4.32;1.50;;;;;;;10.64;96.00;102137.41;7395507;19;20018;-79
2022/03/01 07:29:39;;;;;;;4.85;1.63;;;;;;;10.68;95.86;102149.34;7390238;19;20033;-81
2022/03/01 07:32:07;;;;;;;3.50;2.00;;;;;;;10.73;95.21;102153.28;7393652;19;20014;-83
2022/03/01 07:34:35;;;;;;;5.80;2.72;;;;;;;10.73;95.31;102163.81;7390906;19;20019;-82
2022/03/01 07:37:04;;;;;;;4.10;1.70;;;;;;;10.77;93.75;102166.25;7391386;19;20467;-80
2022/03/01 07:39:35;;;;;;;6.05;2.67;;;;;;;10.76;94.14;102165.41;7389678;19;20127;-84
2022/03/01 07:42:04;;;;;;;4.82;1.92;;;;;;;10.76;94.19;102170.66;7389905;19;20011;-81
2022/03/01 07:44:34;;;;;;;40.65;4.60;;;;;;;10.77;94.70;102168.88;7390680;19;20035;-83
2022/03/01 07:47:01;;;;;;;5.97;2.58;;;;;;;10.68;95.10;102162.50;7393237;19;20387;-81
2022/03/01 07:49:29;;;;;;;5.18;1.88;;;;;;;10.69;95.50;102170.31;7387679;19;20013;-84
2022/03/01 07:51:56;;;;;;;11.50;3.90;;;;;;;10.69;95.00;102178.19;7390698;19;20376;-85
2022/03/01 07:54:23;;;;;;;6.38;2.88;;;;;;;10.71;95.54;102181.56;7392406;19;20040;-81
2022/03/01 07:56:51;;;;;;;4.40;2.17;;;;;;;10.73;95.58;102178.78;7386821;19;20042;-82
2022/03/01 07:59:18;;;;;;;6.60;3.38;;;;;;;10.76;95.10;102173.28;7390762;19;20010;-81
2022/03/01 08:01:48;;;;;;;5.15;2.40;;;;;;;10.76;95.13;102182.97;7386564;19;20780;-80
2022/03/01 08:04:17;;;;;;;4.28;2.08;;;;;;;10.78;94.60;102194.22;7390728;19;20058;-81
2022/03/01 08:06:46;;;;;;;7.45;2.85;;;;;;;10.81;94.87;102188.72;7388386;19;20013;-81
2022/03/01 08:09:14;;;;;;;5.18;2.55;;;;;;;10.83;95.21;102192.06;7385924;19;20041;-82
2022/03/01 08:11:41;;;;;;;4.63;1.95;;;;;;;10.75;94.95;102176.88;7387551;19;20037;-82
2022/03/01 08:14:12;;;;;;;4.68;2.53;;;;;;;10.76;95.55;102172.47;7392657;19;20487;-82
2022/03/01 08:16:40;;;;;;;5.63;2.58;;;;;;;10.76;95.39;102164.56;7386772;19;20025;-80
2022/03/01 08:19:07;;;;;;;43.47;4.97;;;;;;;10.82;95.20;102174.63;7385907;19;20235;-81
2022/03/01 08:21:35;;;;;;;5.35;2.83;;;;;;;10.86;94.75;102174.25;7384733;19;20011;-81
2022/03/01 08:24:02;;;;;;;5.93;2.58;;;;;;;10.87;94.49;102191.69;7387673;19;20022;-84
2022/03/01 08:26:29;;;;;;;23.08;4.88;;;;;;;10.89;94.76;102186.31;7388938;19;20033;-81
2022/03/01 08:28:57;;;;;;;14.98;7.78;;;;;;;10.90;95.10;102193.25;7391893;19;20467;-80
2022/03/01 08:31:24;;;;;;;31.58;3.25;;;;;;;10.88;95.25;102180.22;7388788;19;20015;-82
2022/03/01 08:33:52;;;;;;;2.90;1.92;;;;;;;10.87;94.13;102182.97;7389593;19;20026;-81
2022/03/01 08:36:20;;;;;;;5.63;2.35;;;;;;;10.79;94.70;102180.94;7388274;19;20010;-82
2022/03/01 08:38:47;;;;;;;5.72;2.67;;;;;;;10.84;94.50;102177.94;7392739;19;20022;-81
2022/03/01 08:41:15;;;;;;;6.95;2.58;;;;;;;10.76;94.80;102178.56;7389511;19;20471;-81
2022/03/01 08:43:45;;;;;;;3.47;1.73;;;;;;;10.78;94.71;102195.06;7389760;19;20438;-80
2022/03/01 08:46:14;;;;;;;9.63;2.33;;;;;;;10.75;94.56;102191.84;7391473;19;20018;-81
2022/03/01 08:48:44;;;;;;;3.50;1.52;;;;;;;10.73;94.51;102203.31;7389383;19;20098;-81
2022/03/01 08:51:15;;;;;;;30.35;4.47;;;;;;;10.70;95.00;102200.94;7384097;19;20018;-80
2022/03/01 08:53:50;;;;;;;14.05;4.13;;;;;;;10.75;96.05;102197.94;7389170;19;20027;-82
2022/03/01 08:56:19;;;;;;;3.30;1.55;;;;;;;10.75;95.13;102203.19;7384140;19;20010;-83
2022/03/01 08:58:52;;;;;;;5.85;2.78;;;;;;;10.77;95.14;102201.28;7365440;19;20010;-82
2022/03/01 09:01:21;;;;;;;3.58;1.30;;;;;;;10.79;94.49;102188.84;7383153;19;20327;-82
2022/03/01 09:03:49;;;;;;;37.40;3.28;;;;;;;10.78;94.99;102192.41;7385205;19;20419;-82
2022/03/01 09:06:17;;;;;;;4.30;2.17;;;;;;;10.82;96.26;102198.31;7385603;19;20073;-82
2022/03/01 09:08:47;;;;;;;4.72;2.03;;;;;;;10.81;94.98;102199.25;7385479;19;20427;-82
2022/03/01 09:11:15;;;;;;;3.20;1.77;;;;;;;10.77;94.50;102203.91;7387295;19;20359;-82
2022/03/01 09:13:43;;;;;;;29.50;5.40;;;;;;;10.78;95.06;102221.38;7387394;19;20026;-81
2022/03/01 09:16:10;;;;;;;75.22;6.07;;;;;;;10.76;95.59;102214.56;7386984;19;20018;-82
2022/03/01 09:18:39;;;;;;;8.82;2.80;;;;;;;10.80;95.15;102216.00;7384547;19;20014;-81
2022/03/01 09:21:10;;;;;;;5.40;2.63;;;;;;;10.73;95.37;102219.09;7385215;19;20038;-82
2022/03/01 09:23:42;;;;;;;7.57;4.32;;;;;;;10.75;96.14;102221.63;7383271;19;20019;-83
2022/03/01 09:26:10;;;;;;;8.38;2.85;;;;;;;10.75;94.44;102229.53;7385884;19;20037;-83
2022/03/01 09:28:38;;;;;;;5.65;2.35;;;;;;;10.73;94.80;102231.44;7385254;19;20006;-81
2022/03/01 09:31:05;;;;;;;75.85;6.72;;;;;;;10.72;94.18;102232.38;7385177;19;20014;-81
2022/03/01 09:33:33;;;;;;;5.20;2.05;;;;;;;10.67;93.70;102226.63;7385521;19;20127;-81
2022/03/01 09:36:01;;;;;;;164.55;8.77;;;;;;;10.64;94.04;102225.09;7384220;19;20570;-81
2022/03/01 09:38:28;;;;;;;16.02;6.30;;;;;;;10.64;94.75;102221.63;7388922;19;20010;-80
2022/03/01 09:40:56;;;;;;;4.95;2.38;;;;;;;10.64;93.65;102233.00;7386507;19;20045;-80
2022/03/01 09:43:24;;;;;;;11.98;3.75;;;;;;;10.62;93.97;102234.03;7382690;19;20010;-81
2022/03/01 09:45:52;;;;;;;7.70;3.13;;;;;;;10.59;93.71;102245.66;7384893;19;20038;-81
2022/03/01 09:48:20;;;;;;;15.48;3.30;;;;;;;10.58;94.00;102240.50;7381971;19;20114;-81
2022/03/01 09:50:49;;;;;;;4.25;2.15;;;;;;;10.55;93.65;102232.88;7382345;19;20014;-83
2022/03/01 09:53:17;;;;;;;8.43;3.03;;;;;;;10.54;93.67;102239.06;7384193;19;20349;-82
2022/03/01 09:55:44;;;;;;;12.18;4.32;;;;;;;10.51;94.17;102247.22;7384325;19;20126;-80
2022/03/01 09:58:13;;;;;;;8.40;4.15;;;;;;;10.53;94.82;102242.66;7386010;19;20017;-81
2022/03/01 10:00:40;;;;;;;8.20;4.00;;;;;;;10.54;95.58;102247.81;7381760;19;20067;-82
2022/03/01 10:03:08;;;;;;;7.35;2.58;;;;;;;10.56;94.08;102245.06;7386783;19;20035;-81
2022/03/01 10:05:40;;;;;;;8.13;3.33;;;;;;;10.52;94.03;102243.59;7382571;19;20011;-82
2022/03/01 10:08:12;;;;;;;7.07;2.97;;;;;;;10.55;94.21;102235.50;7382257;19;20562;-83
2022/03/01 10:10:42;;;;;;;7.32;3.05;;;;;;;10.58;93.71;102235.25;7378558;19;20011;-83
2022/03/01 10:13:13;;;;;;;9.70;3.30;;;;;;;10.55;93.86;102238.13;7386173;19;20011;-83
2022/03/01 10:15:40;;;;;;;15.00;5.60;;;;;;;10.56;93.95;102237.19;7380274;19;20041;-81
2022/03/01 10:18:12;;;;;;;9.20;3.95;;;;;;;10.53;94.32;102235.59;7384626;19;20035;-83
2022/03/01 10:20:44;;;;;;;24.27;5.30;;;;;;;10.61;94.62;102230.59;7391064;19;20059;-83
2022/03/01 10:23:12;;;;;;;13.43;3.72;;;;;;;10.55;94.62;102233.72;7392711;19;20014;-81
2022/03/01 10:25:42;;;;;;;8.38;4.22;;;;;;;10.60;94.70;102228.09;7391459;19;20643;-81
2022/03/01 10:28:10;;;;;;;16.48;5.03;;;;;;;10.63;94.35;102230.47;7391813;19;20069;-81
2022/03/01 10:33:16;;;;;;;10.20;3.75;;;;;;;10.69;93.74;102244.00;7388703;19;20087;-81
2022/03/01 10:35:56;;;;;;;10.02;4.53;;;;;;;10.68;93.47;102252.84;7388569;19;20023;-82
2022/03/01 10:38:24;;;;;;;8.02;3.53;;;;;;;10.68;93.17;102244.09;7392230;19;20017;-81
2022/03/01 10:40:58;;;;;;;8.60;4.15;;;;;;;10.67;92.64;102247.69;7391874;19;20373;-82
2022/03/01 10:43:27;;;;;;;8.35;3.90;;;;;;;10.64;92.93;102251.41;7390234;19;20007;-80
2022/03/01 10:45:56;;;;;;;10.45;3.28;;;;;;;10.65;93.08;102250.47;7389958;19;20033;-81
2022/03/01 10:48:59;;;;;;;17.38;4.78;;;;;;;10.60;92.64;102244.72;7387321;19;20010;-80
2022/03/01 10:51:27;;;;;;;9.90;4.43;;;;;;;10.61;92.75;102253.44;7389596;19;20233;-81
2022/03/01 10:53:59;;;;;;;26.88;5.40;;;;;;;10.57;93.61;102250.19;7390476;19;20018;-81
2022/03/01 10:56:37;;;;;;;5.72;2.50;;;;;;;10.60;93.84;102257.03;7394132;19;20021;-83
2022/03/01 10:59:05;;;;;;;6.95;2.80;;;;;;;10.59;93.54;102248.28;7388330;19;20006;-82
2022/03/01 11:01:33;;;;;;;6.90;3.42;;;;;;;10.63;93.28;102249.72;7387101;19;20335;-82
2022/03/01 11:04:01;;;;;;;7.88;3.03;;;;;;;10.65;93.68;102250.47;7390992;19;20018;-82
2022/03/01 11:06:29;;;;;;;5.40;2.97;;;;;;;10.71;93.98;102257.06;7390282;19;20063;-82
2022/03/01 11:08:59;;;;;;;9.70;3.08;;;;;;;10.72;94.35;102253.44;7387546;19;20014;-82
2022/03/01 11:11:29;;;;;;;8.10;3.83;;;;;;;10.75;94.13;102271.66;7388309;19;20022;-82
2022/03/01 11:14:03;;;;;;;6.75;2.72;;;;;;;10.71;93.07;102265.78;7391379;19;20074;-82
2022/03/01 11:16:36;;;;;;;6.47;2.97;;;;;;;10.68;93.02;102270.44;7389335;19;20023;-81
2022/03/01 11:19:13;;;;;;;5.93;2.53;;;;;;;10.65;93.04;102268.06;7387056;19;20020;-83
2022/03/01 11:21:44;;;;;;;5.50;2.60;;;;;;;10.51;92.89;102271.75;7387449;19;20006;-82
2022/03/01 11:24:19;;;;;;;4.85;2.00;;;;;;;10.45;93.65;102268.72;7388795;19;20014;-82
2022/03/01 11:26:47;;;;;;;4.78;2.22;;;;;;;10.49;93.86;102267.53;7392150;19;20448;-82
2022/03/01 11:29:17;;;;;;;7.32;2.38;;;;;;;10.46;93.67;102258.09;7387339;19;20006;-82
2022/03/01 11:32:01;;;;;;;6.00;2.53;;;;;;;10.40;94.12;102258.56;7385700;19;20011;-81